sensor_id;sensor_type;location;lat;lon;timestamp;pressure;altitude;pressure_sealevel;temperature;humidity
71151;BME280;59071;42.138;24.768;2022-12-18T00:01:40;100310.19;;;10.31;100.00
71151;BME280;59071;42.138;24.768;2022-12-18T00:04:11;100296.38;;;10.42;100.00
71151;BME280;59071;42.138;24.768;2022-12-18T00:06:40;100289.78;;;10.38;100.00
71151;BME280;59071;42.138;24.768;2022-12-18T00:09:05;100296.75;;;10.39;100.00
71151;BME280;59071;42.138;24.768;2022-12-18T00:11:32;100305.19;;;10.43;100.00
71151;BME280;59071;42.138;24.768;2022-12-18T00:13:58;100319.25;;;10.22;100.00
71151;BME280;59071;42.138;24.768;2022-12-18T00:16:26;100326.59;;;10.20;100.00
71151;BME280;59071;42.138;24.768;2022-12-18T00:18:54;100331.28;;;10.17;100.00
71151;BME280;59071;42.138;24.768;2022-12-18T00:21:20;100346.66;;;10.22;100.00
71151;BME280;59071;42.138;24.768;2022-12-18T00:23:47;100350.63;;;10.26;100.00
71151;BME280;59071;42.138;24.768;2022-12-18T00:26:25;100356.50;;;10.07;100.00
71151;BME280;59071;42.138;24.768;2022-12-18T00:28:52;100352.38;;;10.04;100.00
71151;BME280;59071;42.138;24.768;2022-12-18T00:31:21;100357.16;;;9.94;100.00
71151;BME280;59071;42.138;24.768;2022-12-18T00:33:47;100363.13;;;9.96;100.00
71151;BME280;59071;42.138;24.768;2022-12-18T00:36:19;100370.63;;;10.07;100.00
71151;BME280;59071;42.138;24.768;2022-12-18T00:38:46;100366.66;;;10.03;100.00
71151;BME280;59071;42.138;24.768;2022-12-18T00:41:13;100364.50;;;9.92;100.00
71151;BME280;59071;42.138;24.768;2022-12-18T00:43:39;100368.97;;;9.76;100.00
71151;BME280;59071;42.138;24.768;2022-12-18T00:46:05;100382.47;;;9.75;100.00
71151;BME280;59071;42.138;24.768;2022-12-18T00:48:31;100388.31;;;9.70;100.00
71151;BME280;59071;42.138;24.768;2022-12-18T00:50:57;100399.31;;;10.12;100.00
71151;BME280;59071;42.138;24.768;2022-12-18T00:53:22;100391.16;;;10.13;100.00
71151;BME280;59071;42.138;24.768;2022-12-18T00:55:48;100395.75;;;9.90;100.00
71151;BME280;59071;42.138;24.768;2022-12-18T00:58:15;100381.91;;;9.79;100.00
71151;BME280;59071;42.138;24.768;2022-12-18T01:00:41;100394.91;;;9.74;100.00
71151;BME280;59071;42.138;24.768;2022-12-18T01:03:07;100386.13;;;9.74;100.00
71151;BME280;59071;42.138;24.768;2022-12-18T01:05:32;100384.66;;;9.86;100.00
71151;BME280;59071;42.138;24.768;2022-12-18T01:07:58;100382.56;;;9.96;100.00
71151;BME280;59071;42.138;24.768;2022-12-18T01:10:24;100385.28;;;9.73;100.00
71151;BME280;59071;42.138;24.768;2022-12-18T01:12:54;100376.09;;;9.61;100.00
71151;BME280;59071;42.138;24.768;2022-12-18T01:15:20;100387.97;;;9.73;100.00
71151;BME280;59071;42.138;24.768;2022-12-18T01:17:45;100386.84;;;9.68;100.00
71151;BME280;59071;42.138;24.768;2022-12-18T01:20:12;100379.50;;;9.55;100.00
71151;BME280;59071;42.138;24.768;2022-12-18T01:22:37;100367.41;;;9.52;100.00
71151;BME280;59071;42.138;24.768;2022-12-18T01:25:04;100373.47;;;9.76;100.00
71151;BME280;59071;42.138;24.768;2022-12-18T01:27:30;100377.41;;;9.50;100.00
71151;BME280;59071;42.138;24.768;2022-12-18T01:29:55;100381.16;;;9.56;100.00
71151;BME280;59071;42.138;24.768;2022-12-18T01:32:21;100373.25;;;9.48;100.00
71151;BME280;59071;42.138;24.768;2022-12-18T01:34:47;100377.66;;;9.55;100.00
71151;BME280;59071;42.138;24.768;2022-12-18T01:37:12;100375.84;;;9.71;100.00
71151;BME280;59071;42.138;24.768;2022-12-18T01:39:38;100375.03;;;9.70;100.00
71151;BME280;59071;42.138;24.768;2022-12-18T01:42:05;100379.16;;;9.73;100.00
71151;BME280;59071;42.138;24.768;2022-12-18T01:45:00;100370.44;;;9.64;100.00
71151;BME280;59071;42.138;24.768;2022-12-18T01:49:56;100373.75;;;9.66;100.00
71151;BME280;59071;42.138;24.768;2022-12-18T01:52:24;100373.38;;;9.54;100.00
71151;BME280;59071;42.138;24.768;2022-12-18T01:54:51;100387.50;;;9.70;100.00
71151;BME280;59071;42.138;24.768;2022-12-18T01:57:18;100377.69;;;9.70;100.00
71151;BME280;59071;42.138;24.768;2022-12-18T01:59:48;100377.31;;;9.73;100.00
71151;BME280;59071;42.138;24.768;2022-12-18T02:02:16;100375.66;;;9.72;100.00
71151;BME280;59071;42.138;24.768;2022-12-18T02:04:42;100385.56;;;9.78;100.00
71151;BME280;59071;42.138;24.768;2022-12-18T02:09:56;100389.31;;;9.99;100.00
71151;BME280;59071;42.138;24.768;2022-12-18T02:12:26;100405.91;;;10.16;100.00
71151;BME280;59071;42.138;24.768;2022-12-18T02:15:02;100400.69;;;10.23;100.00
71151;BME280;59071;42.138;24.768;2022-12-18T02:17:37;100397.66;;;10.41;100.00
71151;BME280;59071;42.138;24.768;2022-12-18T02:28:06;100413.88;;;10.61;100.00
71151;BME280;59071;42.138;24.768;2022-12-18T02:30:34;100418.13;;;10.55;100.00
71151;BME280;59071;42.138;24.768;2022-12-18T02:33:01;100401.31;;;10.54;100.00
71151;BME280;59071;42.138;24.768;2022-12-18T02:35:30;100413.50;;;10.64;100.00
71151;BME280;59071;42.138;24.768;2022-12-18T02:37:57;100405.06;;;10.60;100.00
71151;BME280;59071;42.138;24.768;2022-12-18T02:40:26;100401.03;;;10.64;100.00
71151;BME280;59071;42.138;24.768;2022-12-18T02:42:52;100403.28;;;10.67;100.00
71151;BME280;59071;42.138;24.768;2022-12-18T02:45:17;100403.63;;;10.79;99.26
71151;BME280;59071;42.138;24.768;2022-12-18T02:47:46;100403.06;;;10.84;98.11
71151;BME280;59071;42.138;24.768;2022-12-18T02:50:22;100401.31;;;10.91;97.66
71151;BME280;59071;42.138;24.768;2022-12-18T02:53:27;100402.81;;;10.79;98.17
71151;BME280;59071;42.138;24.768;2022-12-18T02:56:13;100409.22;;;10.84;98.02
71151;BME280;59071;42.138;24.768;2022-12-18T03:01:19;100407.72;;;10.60;98.75
71151;BME280;59071;42.138;24.768;2022-12-18T03:03:55;100402.75;;;10.72;98.30
71151;BME280;59071;42.138;24.768;2022-12-18T03:06:32;100407.00;;;10.88;96.89
71151;BME280;59071;42.138;24.768;2022-12-18T03:09:02;100410.34;;;10.75;97.58
71151;BME280;59071;42.138;24.768;2022-12-18T03:11:33;100412.88;;;10.83;98.49
71151;BME280;59071;42.138;24.768;2022-12-18T03:14:19;100413.03;;;10.60;99.36
71151;BME280;59071;42.138;24.768;2022-12-18T03:16:52;100407.88;;;10.73;98.46
71151;BME280;59071;42.138;24.768;2022-12-18T03:19:22;100415.34;;;10.85;97.89
71151;BME280;59071;42.138;24.768;2022-12-18T03:21:51;100421.00;;;10.75;97.53
71151;BME280;59071;42.138;24.768;2022-12-18T03:24:19;100422.25;;;10.79;96.60
71151;BME280;59071;42.138;24.768;2022-12-18T03:26:50;100418.31;;;10.75;97.08
71151;BME280;59071;42.138;24.768;2022-12-18T03:31:49;100426.13;;;10.76;97.67
71151;BME280;59071;42.138;24.768;2022-12-18T03:34:21;100431.03;;;10.58;98.46
71151;BME280;59071;42.138;24.768;2022-12-18T03:36:48;100433.69;;;10.58;98.01
71151;BME280;59071;42.138;24.768;2022-12-18T03:39:14;100435.31;;;10.74;97.07
71151;BME280;59071;42.138;24.768;2022-12-18T03:41:55;100444.63;;;10.63;97.35
71151;BME280;59071;42.138;24.768;2022-12-18T03:44:29;100445.66;;;10.32;98.29
71151;BME280;59071;42.138;24.768;2022-12-18T03:47:16;100458.56;;;10.50;97.57
71151;BME280;59071;42.138;24.768;2022-12-18T03:49:58;100461.50;;;10.55;96.98
71151;BME280;59071;42.138;24.768;2022-12-18T03:52:33;100470.66;;;10.68;95.70
71151;BME280;59071;42.138;24.768;2022-12-18T03:55:03;100466.38;;;10.67;95.73
71151;BME280;59071;42.138;24.768;2022-12-18T03:57:31;100477.13;;;10.59;96.34
71151;BME280;59071;42.138;24.768;2022-12-18T04:00:03;100473.25;;;10.61;95.74
71151;BME280;59071;42.138;24.768;2022-12-18T04:02:30;100479.41;;;10.62;95.14
71151;BME280;59071;42.138;24.768;2022-12-18T04:04:59;100447.63;;;10.60;95.22
71151;BME280;59071;42.138;24.768;2022-12-18T04:07:26;100480.78;;;10.57;95.65
71151;BME280;59071;42.138;24.768;2022-12-18T04:09:55;100487.38;;;10.62;95.76
71151;BME280;59071;42.138;24.768;2022-12-18T04:12:24;100483.38;;;10.36;97.16
71151;BME280;59071;42.138;24.768;2022-12-18T04:14:50;100488.22;;;10.32;97.14
71151;BME280;59071;42.138;24.768;2022-12-18T04:17:16;100491.88;;;10.31;96.42
71151;BME280;59071;42.138;24.768;2022-12-18T04:19:41;100487.47;;;10.24;96.32
71151;BME280;59071;42.138;24.768;2022-12-18T04:22:09;100478.06;;;10.51;95.42
71151;BME280;59071;42.138;24.768;2022-12-18T04:24:35;100484.38;;;10.50;95.08
71151;BME280;59071;42.138;24.768;2022-12-18T04:27:01;100490.63;;;10.57;94.34
71151;BME280;59071;42.138;24.768;2022-12-18T04:29:26;100498.50;;;10.65;94.34
71151;BME280;59071;42.138;24.768;2022-12-18T04:31:51;100491.06;;;10.46;94.30
71151;BME280;59071;42.138;24.768;2022-12-18T04:34:17;100498.09;;;10.24;94.19
71151;BME280;59071;42.138;24.768;2022-12-18T04:36:42;100494.97;;;10.20;94.35
71151;BME280;59071;42.138;24.768;2022-12-18T04:39:08;100505.63;;;10.20;93.84
71151;BME280;59071;42.138;24.768;2022-12-18T04:41:33;100498.31;;;9.69;95.88
71151;BME280;59071;42.138;24.768;2022-12-18T04:43:58;100500.97;;;9.69;96.21
71151;BME280;59071;42.138;24.768;2022-12-18T04:46:24;100509.72;;;9.93;95.25
71151;BME280;59071;42.138;24.768;2022-12-18T04:48:49;100513.81;;;9.81;95.17
71151;BME280;59071;42.138;24.768;2022-12-18T04:51:15;100516.91;;;9.84;94.36
71151;BME280;59071;42.138;24.768;2022-12-18T04:53:40;100528.69;;;9.67;94.94
71151;BME280;59071;42.138;24.768;2022-12-18T04:56:09;100530.53;;;9.66;93.50
71151;BME280;59071;42.138;24.768;2022-12-18T04:58:36;100536.91;;;9.57;94.69
71151;BME280;59071;42.138;24.768;2022-12-18T05:01:01;100531.22;;;9.83;92.50
71151;BME280;59071;42.138;24.768;2022-12-18T05:03:27;100543.84;;;9.43;93.67
71151;BME280;59071;42.138;24.768;2022-12-18T05:05:52;100543.28;;;9.48;93.99
71151;BME280;59071;42.138;24.768;2022-12-18T05:08:18;100546.81;;;9.40;93.66
71151;BME280;59071;42.138;24.768;2022-12-18T05:10:43;100546.81;;;9.40;94.33
71151;BME280;59071;42.138;24.768;2022-12-18T05:13:09;100547.63;;;9.49;93.12
71151;BME280;59071;42.138;24.768;2022-12-18T05:15:35;100555.09;;;9.45;92.71
71151;BME280;59071;42.138;24.768;2022-12-18T05:18:01;100562.13;;;9.38;92.90
71151;BME280;59071;42.138;24.768;2022-12-18T05:20:27;100561.81;;;9.02;94.06
71151;BME280;59071;42.138;24.768;2022-12-18T05:22:53;100575.13;;;9.33;92.69
71151;BME280;59071;42.138;24.768;2022-12-18T05:25:19;100579.34;;;9.42;92.88
71151;BME280;59071;42.138;24.768;2022-12-18T05:27:45;100581.56;;;9.62;91.27
71151;BME280;59071;42.138;24.768;2022-12-18T05:30:11;100588.25;;;9.81;90.71
71151;BME280;59071;42.138;24.768;2022-12-18T05:32:37;100599.56;;;9.51;92.29
71151;BME280;59071;42.138;24.768;2022-12-18T05:35:04;100601.81;;;9.63;91.40
71151;BME280;59071;42.138;24.768;2022-12-18T05:37:30;100607.91;;;9.71;91.63
71151;BME280;59071;42.138;24.768;2022-12-18T05:39:55;100608.88;;;9.47;92.38
71151;BME280;59071;42.138;24.768;2022-12-18T05:42:21;100615.41;;;9.36;93.13
71151;BME280;59071;42.138;24.768;2022-12-18T05:44:46;100614.34;;;9.23;93.52
71151;BME280;59071;42.138;24.768;2022-12-18T05:47:12;100616.47;;;9.27;93.02
71151;BME280;59071;42.138;24.768;2022-12-18T05:49:37;100627.38;;;9.41;92.20
71151;BME280;59071;42.138;24.768;2022-12-18T05:52:02;100625.09;;;9.61;91.00
71151;BME280;59071;42.138;24.768;2022-12-18T05:54:28;100634.00;;;9.36;91.96
71151;BME280;59071;42.138;24.768;2022-12-18T05:56:53;100634.53;;;9.63;90.64
71151;BME280;59071;42.138;24.768;2022-12-18T05:59:19;100634.22;;;9.35;91.74
71151;BME280;59071;42.138;24.768;2022-12-18T06:01:45;100641.31;;;9.34;91.57
71151;BME280;59071;42.138;24.768;2022-12-18T06:04:11;100644.41;;;9.15;91.03
71151;BME280;59071;42.138;24.768;2022-12-18T06:06:36;100645.59;;;9.44;90.12
71151;BME280;59071;42.138;24.768;2022-12-18T06:09:02;100643.41;;;9.16;89.19
71151;BME280;59071;42.138;24.768;2022-12-18T06:11:34;100636.88;;;8.87;90.80
71151;BME280;59071;42.138;24.768;2022-12-18T06:14:00;100641.63;;;9.00;90.04
71151;BME280;59071;42.138;24.768;2022-12-18T06:16:27;100648.31;;;9.35;89.46
71151;BME280;59071;42.138;24.768;2022-12-18T06:18:53;100660.94;;;9.33;89.02
71151;BME280;59071;42.138;24.768;2022-12-18T06:21:18;100664.75;;;9.31;88.22
71151;BME280;59071;42.138;24.768;2022-12-18T06:23:44;100666.59;;;9.30;88.45
71151;BME280;59071;42.138;24.768;2022-12-18T06:26:11;100666.91;;;9.35;88.29
71151;BME280;59071;42.138;24.768;2022-12-18T06:28:38;100675.28;;;9.16;88.64
71151;BME280;59071;42.138;24.768;2022-12-18T06:31:04;100673.91;;;9.28;87.87
71151;BME280;59071;42.138;24.768;2022-12-18T06:33:30;100675.25;;;9.55;86.70
71151;BME280;59071;42.138;24.768;2022-12-18T06:36:08;100683.97;;;9.41;86.99
71151;BME280;59071;42.138;24.768;2022-12-18T06:38:35;100691.84;;;9.26;87.60
71151;BME280;59071;42.138;24.768;2022-12-18T06:41:02;100686.31;;;9.75;86.41
71151;BME280;59071;42.138;24.768;2022-12-18T06:43:30;100700.41;;;9.45;86.34
71151;BME280;59071;42.138;24.768;2022-12-18T06:46:00;100704.31;;;9.17;86.81
71151;BME280;59071;42.138;24.768;2022-12-18T06:48:26;100706.72;;;9.44;85.79
71151;BME280;59071;42.138;24.768;2022-12-18T06:50:51;100717.13;;;9.62;85.71
71151;BME280;59071;42.138;24.768;2022-12-18T06:53:17;100712.78;;;9.61;84.72
71151;BME280;59071;42.138;24.768;2022-12-18T06:55:42;100709.38;;;9.44;85.62
71151;BME280;59071;42.138;24.768;2022-12-18T06:58:08;100725.78;;;9.47;85.93
71151;BME280;59071;42.138;24.768;2022-12-18T07:00:34;100727.47;;;9.48;85.16
71151;BME280;59071;42.138;24.768;2022-12-18T07:02:59;100722.03;;;9.33;85.92
71151;BME280;59071;42.138;24.768;2022-12-18T07:05:24;100720.56;;;9.23;86.33
71151;BME280;59071;42.138;24.768;2022-12-18T07:07:50;100728.31;;;9.41;85.91
71151;BME280;59071;42.138;24.768;2022-12-18T07:10:15;100737.63;;;9.36;86.61
71151;BME280;59071;42.138;24.768;2022-12-18T07:12:41;100722.94;;;9.57;85.43
71151;BME280;59071;42.138;24.768;2022-12-18T07:15:06;100732.53;;;9.66;84.84
71151;BME280;59071;42.138;24.768;2022-12-18T07:17:32;100743.59;;;9.38;86.74
71151;BME280;59071;42.138;24.768;2022-12-18T07:19:57;100732.81;;;10.03;83.29
71151;BME280;59071;42.138;24.768;2022-12-18T07:22:24;100737.34;;;9.63;84.27
71151;BME280;59071;42.138;24.768;2022-12-18T07:24:50;100741.91;;;9.54;85.75
71151;BME280;59071;42.138;24.768;2022-12-18T07:27:16;100749.81;;;9.62;83.75
71151;BME280;59071;42.138;24.768;2022-12-18T07:29:41;100751.28;;;9.73;83.88
71151;BME280;59071;42.138;24.768;2022-12-18T07:32:06;100752.66;;;9.61;84.70
71151;BME280;59071;42.138;24.768;2022-12-18T07:34:32;100759.09;;;9.66;84.91
71151;BME280;59071;42.138;24.768;2022-12-18T07:36:58;100754.88;;;9.80;83.54
71151;BME280;59071;42.138;24.768;2022-12-18T07:39:23;100749.09;;;9.37;84.33
71151;BME280;59071;42.138;24.768;2022-12-18T07:41:49;100758.16;;;9.51;85.02
71151;BME280;59071;42.138;24.768;2022-12-18T07:44:34;100763.06;;;9.70;83.44
71151;BME280;59071;42.138;24.768;2022-12-18T07:46:59;100762.03;;;9.79;82.77
71151;BME280;59071;42.138;24.768;2022-12-18T07:49:25;100765.03;;;9.76;82.98
71151;BME280;59071;42.138;24.768;2022-12-18T07:51:50;100771.94;;;9.54;82.83
71151;BME280;59071;42.138;24.768;2022-12-18T07:54:16;100780.59;;;9.88;81.97
71151;BME280;59071;42.138;24.768;2022-12-18T07:56:41;100779.66;;;9.81;80.97
71151;BME280;59071;42.138;24.768;2022-12-18T07:59:07;100789.19;;;9.58;81.20
71151;BME280;59071;42.138;24.768;2022-12-18T08:01:33;100785.44;;;9.84;81.39
71151;BME280;59071;42.138;24.768;2022-12-18T08:03:59;100791.88;;;9.98;79.76
71151;BME280;59071;42.138;24.768;2022-12-18T08:06:25;100807.22;;;10.19;79.50
71151;BME280;59071;42.138;24.768;2022-12-18T08:08:52;100795.13;;;10.08;78.95
71151;BME280;59071;42.138;24.768;2022-12-18T08:11:17;100805.94;;;10.07;79.45
71151;BME280;59071;42.138;24.768;2022-12-18T08:13:43;100763.19;;;9.85;78.78
71151;BME280;59071;42.138;24.768;2022-12-18T08:16:08;100810.63;;;10.28;78.07
71151;BME280;59071;42.138;24.768;2022-12-18T08:18:36;100807.75;;;10.46;77.01
71151;BME280;59071;42.138;24.768;2022-12-18T08:21:13;100821.09;;;10.29;77.48
71151;BME280;59071;42.138;24.768;2022-12-18T08:23:39;100814.97;;;10.29;78.51
71151;BME280;59071;42.138;24.768;2022-12-18T08:26:04;100817.44;;;9.99;78.75
71151;BME280;59071;42.138;24.768;2022-12-18T08:28:30;100825.34;;;10.15;77.02
71151;BME280;59071;42.138;24.768;2022-12-18T08:30:55;100824.53;;;10.15;77.19
71151;BME280;59071;42.138;24.768;2022-12-18T08:33:21;100829.31;;;10.20;76.90
71151;BME280;59071;42.138;24.768;2022-12-18T08:35:46;100828.66;;;10.17;76.68
71151;BME280;59071;42.138;24.768;2022-12-18T08:38:11;100816.19;;;10.18;76.42
71151;BME280;59071;42.138;24.768;2022-12-18T08:40:37;100821.28;;;10.59;75.17
71151;BME280;59071;42.138;24.768;2022-12-18T08:43:02;100821.63;;;10.56;74.93
71151;BME280;59071;42.138;24.768;2022-12-18T08:45:46;100816.31;;;10.33;75.76
71151;BME280;59071;42.138;24.768;2022-12-18T08:48:12;100808.31;;;10.33;76.00
71151;BME280;59071;42.138;24.768;2022-12-18T08:50:37;100815.13;;;10.27;75.84
71151;BME280;59071;42.138;24.768;2022-12-18T08:53:02;100819.00;;;10.16;75.74
71151;BME280;59071;42.138;24.768;2022-12-18T08:55:28;100806.31;;;10.35;75.29
71151;BME280;59071;42.138;24.768;2022-12-18T08:57:53;100811.81;;;10.56;74.67
71151;BME280;59071;42.138;24.768;2022-12-18T09:00:19;100806.38;;;10.73;73.96
71151;BME280;59071;42.138;24.768;2022-12-18T09:02:45;100803.66;;;10.35;75.32
71151;BME280;59071;42.138;24.768;2022-12-18T09:05:10;100802.19;;;10.32;74.61
71151;BME280;59071;42.138;24.768;2022-12-18T09:07:36;100802.25;;;10.47;74.13
71151;BME280;59071;42.138;24.768;2022-12-18T09:10:01;100802.66;;;10.59;74.75
71151;BME280;59071;42.138;24.768;2022-12-18T09:12:27;100810.47;;;10.61;73.84
71151;BME280;59071;42.138;24.768;2022-12-18T09:14:52;100808.94;;;10.66;74.05
71151;BME280;59071;42.138;24.768;2022-12-18T09:17:17;100812.41;;;10.67;74.44
71151;BME280;59071;42.138;24.768;2022-12-18T09:19:43;100808.00;;;10.59;73.61
71151;BME280;59071;42.138;24.768;2022-12-18T09:22:09;100805.91;;;10.69;73.30
71151;BME280;59071;42.138;24.768;2022-12-18T09:24:35;100798.78;;;10.85;72.03
71151;BME280;59071;42.138;24.768;2022-12-18T09:27:00;100812.34;;;10.52;73.92
71151;BME280;59071;42.138;24.768;2022-12-18T09:29:26;100817.13;;;10.56;72.55
71151;BME280;59071;42.138;24.768;2022-12-18T09:31:51;100805.97;;;10.84;72.14
71151;BME280;59071;42.138;24.768;2022-12-18T09:34:16;100812.50;;;10.96;72.36
71151;BME280;59071;42.138;24.768;2022-12-18T09:36:42;100816.97;;;10.58;73.36
71151;BME280;59071;42.138;24.768;2022-12-18T09:39:07;100813.94;;;10.38;72.95
71151;BME280;59071;42.138;24.768;2022-12-18T09:41:56;100814.72;;;10.15;74.50
71151;BME280;59071;42.138;24.768;2022-12-18T09:44:44;100804.31;;;10.29;74.70
71151;BME280;59071;42.138;24.768;2022-12-18T09:47:16;100816.88;;;10.43;74.24
71151;BME280;59071;42.138;24.768;2022-12-18T09:49:46;100799.22;;;10.19;74.12
71151;BME280;59071;42.138;24.768;2022-12-18T09:52:19;100807.69;;;10.54;73.76
71151;BME280;59071;42.138;24.768;2022-12-18T09:54:51;100808.97;;;10.58;73.45
71151;BME280;59071;42.138;24.768;2022-12-18T09:57:21;100814.25;;;10.89;72.51
71151;BME280;59071;42.138;24.768;2022-12-18T09:59:56;100815.34;;;10.49;73.72
71151;BME280;59071;42.138;24.768;2022-12-18T10:02:26;100809.75;;;10.90;72.40
71151;BME280;59071;42.138;24.768;2022-12-18T10:05:02;100803.84;;;10.94;71.03
71151;BME280;59071;42.138;24.768;2022-12-18T10:10:15;100813.03;;;11.30;71.33
71151;BME280;59071;42.138;24.768;2022-12-18T10:13:09;100812.00;;;11.16;70.83
71151;BME280;59071;42.138;24.768;2022-12-18T10:16:13;100809.00;;;10.96;72.33
71151;BME280;59071;42.138;24.768;2022-12-18T10:21:21;100805.56;;;10.72;72.90
71151;BME280;59071;42.138;24.768;2022-12-18T10:26:14;100811.22;;;10.69;72.86
71151;BME280;59071;42.138;24.768;2022-12-18T10:28:40;100816.28;;;10.64;73.10
71151;BME280;59071;42.138;24.768;2022-12-18T10:31:21;100803.63;;;11.19;71.29
71151;BME280;59071;42.138;24.768;2022-12-18T10:33:46;100818.53;;;12.18;96.63
71151;BME280;59071;42.138;24.768;2022-12-18T10:36:12;100811.16;;;13.06;67.87
71151;BME280;59071;42.138;24.768;2022-12-18T10:38:38;100813.56;;;12.15;68.08
71151;BME280;59071;42.138;24.768;2022-12-18T10:41:26;100807.81;;;11.81;69.50
71151;BME280;59071;42.138;24.768;2022-12-18T10:46:36;100819.72;;;11.11;70.30
71151;BME280;59071;42.138;24.768;2022-12-18T10:49:01;100832.16;;;10.95;71.04
71151;BME280;59071;42.138;24.768;2022-12-18T10:51:36;100827.38;;;10.91;71.05
71151;BME280;59071;42.138;24.768;2022-12-18T10:54:03;100833.00;;;10.73;71.91
71151;BME280;59071;42.138;24.768;2022-12-18T10:56:31;100837.38;;;10.66;71.97
71151;BME280;59071;42.138;24.768;2022-12-18T10:59:10;100846.66;;;10.70;71.57
71151;BME280;59071;42.138;24.768;2022-12-18T11:04:18;100854.94;;;10.52;72.44
71151;BME280;59071;42.138;24.768;2022-12-18T11:09:31;100857.41;;;10.30;74.98
71151;BME280;59071;42.138;24.768;2022-12-18T11:11:59;100856.13;;;10.49;73.81
71151;BME280;59071;42.138;24.768;2022-12-18T11:14:29;100858.84;;;10.02;76.50
71151;BME280;59071;42.138;24.768;2022-12-18T11:16:57;100855.03;;;10.35;74.79
71151;BME280;59071;42.138;24.768;2022-12-18T11:21:59;100872.03;;;10.57;73.83
71151;BME280;59071;42.138;24.768;2022-12-18T11:24:32;100875.03;;;10.54;73.42
71151;BME280;59071;42.138;24.768;2022-12-18T11:27:01;100855.22;;;10.34;74.90
71151;BME280;59071;42.138;24.768;2022-12-18T11:29:37;100874.22;;;10.14;76.42
71151;BME280;59071;42.138;24.768;2022-12-18T11:32:24;100873.47;;;10.37;75.60
71151;BME280;59071;42.138;24.768;2022-12-18T11:35:41;100865.38;;;10.30;76.42
71151;BME280;59071;42.138;24.768;2022-12-18T11:37:43;100861.06;;;10.21;77.14
71151;BME280;59071;42.138;24.768;2022-12-18T11:40:16;100870.34;;;9.94;77.99
71151;BME280;59071;42.138;24.768;2022-12-18T11:43:09;100873.72;;;10.19;76.82
71151;BME280;59071;42.138;24.768;2022-12-18T11:45:41;100865.78;;;10.03;76.51
71151;BME280;59071;42.138;24.768;2022-12-18T11:48:44;100871.69;;;9.82;77.17
71151;BME280;59071;42.138;24.768;2022-12-18T11:51:20;100873.50;;;9.89;75.97
71151;BME280;59071;42.138;24.768;2022-12-18T11:53:48;100863.63;;;9.50;78.59
71151;BME280;59071;42.138;24.768;2022-12-18T11:56:46;100869.81;;;9.98;78.00
71151;BME280;59071;42.138;24.768;2022-12-18T12:05:01;100882.84;;;10.16;77.03
71151;BME280;59071;42.138;24.768;2022-12-18T12:07:55;100874.22;;;10.14;75.97
71151;BME280;59071;42.138;24.768;2022-12-18T12:10:42;100878.31;;;9.94;76.18
71151;BME280;59071;42.138;24.768;2022-12-18T12:13:44;100878.00;;;10.28;73.26
71151;BME280;59071;42.138;24.768;2022-12-18T12:35:29;100884.28;;;10.35;70.43
71151;BME280;59071;42.138;24.768;2022-12-18T12:38:13;100895.19;;;10.49;69.43
71151;BME280;59071;42.138;24.768;2022-12-18T12:40:45;100896.31;;;10.63;69.36
71151;BME280;59071;42.138;24.768;2022-12-18T12:43:25;100901.75;;;10.38;69.59
71151;BME280;59071;42.138;24.768;2022-12-18T12:46:03;100894.75;;;10.45;69.60
71151;BME280;59071;42.138;24.768;2022-12-18T12:48:44;100908.25;;;10.67;68.11
71151;BME280;59071;42.138;24.768;2022-12-18T12:51:23;100911.75;;;10.36;69.02
71151;BME280;59071;42.138;24.768;2022-12-18T12:53:50;100911.25;;;10.24;68.85
71151;BME280;59071;42.138;24.768;2022-12-18T12:56:19;100905.63;;;9.71;70.18
71151;BME280;59071;42.138;24.768;2022-12-18T13:01:43;100920.75;;;10.27;67.96
71151;BME280;59071;42.138;24.768;2022-12-18T13:04:39;100933.38;;;10.33;68.68
71151;BME280;59071;42.138;24.768;2022-12-18T13:07:15;100933.16;;;10.51;67.99
71151;BME280;59071;42.138;24.768;2022-12-18T13:10:43;100937.06;;;10.15;68.05
71151;BME280;59071;42.138;24.768;2022-12-18T13:18:23;100949.34;;;10.33;67.21
71151;BME280;59071;42.138;24.768;2022-12-18T13:20:51;100947.50;;;10.33;67.28
71151;BME280;59071;42.138;24.768;2022-12-18T13:23:33;100960.31;;;10.38;67.54
71151;BME280;59071;42.138;24.768;2022-12-18T13:31:15;100960.16;;;10.31;67.35
71151;BME280;59071;42.138;24.768;2022-12-18T13:34:15;100961.94;;;10.47;67.56
71151;BME280;59071;42.138;24.768;2022-12-18T13:36:41;100968.00;;;10.64;65.86
71151;BME280;59071;42.138;24.768;2022-12-18T13:39:22;100968.78;;;10.42;67.11
71151;BME280;59071;42.138;24.768;2022-12-18T13:41:54;100971.84;;;10.62;66.02
71151;BME280;59071;42.138;24.768;2022-12-18T13:44:59;100974.66;;;10.68;67.79
71151;BME280;59071;42.138;24.768;2022-12-18T13:47:32;100973.72;;;10.84;66.59
71151;BME280;59071;42.138;24.768;2022-12-18T13:49:59;100977.91;;;10.47;68.63
71151;BME280;59071;42.138;24.768;2022-12-18T13:52:27;100984.91;;;10.80;67.85
71151;BME280;59071;42.138;24.768;2022-12-18T13:54:56;100985.72;;;10.80;69.61
71151;BME280;59071;42.138;24.768;2022-12-18T13:57:38;100987.81;;;10.62;71.16
71151;BME280;59071;42.138;24.768;2022-12-18T14:02:48;101004.69;;;10.37;74.25
71151;BME280;59071;42.138;24.768;2022-12-18T14:05:29;101012.50;;;10.39;74.61
71151;BME280;59071;42.138;24.768;2022-12-18T14:08:08;101009.22;;;10.21;76.80
71151;BME280;59071;42.138;24.768;2022-12-18T14:10:35;101021.19;;;10.16;78.29
71151;BME280;59071;42.138;24.768;2022-12-18T14:13:06;101025.34;;;10.19;78.78
71151;BME280;59071;42.138;24.768;2022-12-18T14:15:36;101031.50;;;10.11;78.77